sensor_id;sensor_type;location;lat;lon;timestamp;P1;durP1;ratioP1;P2;durP2;ratioP2
19358;SDS011;9815;52.334;20.890;2023-01-10T00:01:43;98.97;;;32.47;;
19358;SDS011;9815;52.334;20.890;2023-01-10T00:04:11;97.53;;;30.53;;
19358;SDS011;9815;52.334;20.890;2023-01-10T00:06:39;93.67;;;30.43;;
19358;SDS011;9815;52.334;20.890;2023-01-10T00:09:08;96.00;;;29.77;;
19358;SDS011;9815;52.334;20.890;2023-01-10T00:11:37;101.73;;;31.50;;
19358;SDS011;9815;52.334;20.890;2023-01-10T00:14:25;93.30;;;31.20;;
19358;SDS011;9815;52.334;20.890;2023-01-10T00:16:54;99.10;;;29.80;;
19358;SDS011;9815;52.334;20.890;2023-01-10T00:19:22;88.33;;;29.80;;
19358;SDS011;9815;52.334;20.890;2023-01-10T00:21:50;96.10;;;30.83;;
19358;SDS011;9815;52.334;20.890;2023-01-10T00:24:18;112.10;;;33.57;;
19358;SDS011;9815;52.334;20.890;2023-01-10T00:26:50;91.03;;;29.73;;
19358;SDS011;9815;52.334;20.890;2023-01-10T00:29:18;99.03;;;29.40;;
19358;SDS011;9815;52.334;20.890;2023-01-10T00:31:47;93.20;;;29.13;;
19358;SDS011;9815;52.334;20.890;2023-01-10T00:34:16;100.50;;;29.30;;
19358;SDS011;9815;52.334;20.890;2023-01-10T00:36:44;95.30;;;28.40;;
19358;SDS011;9815;52.334;20.890;2023-01-10T00:39:13;96.97;;;29.33;;
19358;SDS011;9815;52.334;20.890;2023-01-10T00:41:44;100.00;;;30.20;;
19358;SDS011;9815;52.334;20.890;2023-01-10T00:44:30;91.83;;;28.87;;
19358;SDS011;9815;52.334;20.890;2023-01-10T00:46:58;94.57;;;29.70;;
19358;SDS011;9815;52.334;20.890;2023-01-10T00:49:26;99.67;;;29.47;;
19358;SDS011;9815;52.334;20.890;2023-01-10T00:51:54;99.30;;;30.10;;
19358;SDS011;9815;52.334;20.890;2023-01-10T00:54:23;99.43;;;29.83;;
19358;SDS011;9815;52.334;20.890;2023-01-10T00:56:51;92.80;;;29.57;;
19358;SDS011;9815;52.334;20.890;2023-01-10T00:59:19;94.67;;;30.30;;
19358;SDS011;9815;52.334;20.890;2023-01-10T01:01:49;107.67;;;29.87;;
19358;SDS011;9815;52.334;20.890;2023-01-10T01:04:18;106.97;;;31.37;;
19358;SDS011;9815;52.334;20.890;2023-01-10T01:06:45;101.87;;;31.60;;
19358;SDS011;9815;52.334;20.890;2023-01-10T01:09:15;102.33;;;30.23;;
19358;SDS011;9815;52.334;20.890;2023-01-10T01:11:43;107.30;;;30.17;;
19358;SDS011;9815;52.334;20.890;2023-01-10T01:14:11;106.40;;;28.77;;
19358;SDS011;9815;52.334;20.890;2023-01-10T01:16:39;102.17;;;30.13;;
19358;SDS011;9815;52.334;20.890;2023-01-10T01:19:09;106.90;;;31.50;;
19358;SDS011;9815;52.334;20.890;2023-01-10T01:21:37;108.17;;;30.77;;
19358;SDS011;9815;52.334;20.890;2023-01-10T01:24:05;107.27;;;30.53;;
19358;SDS011;9815;52.334;20.890;2023-01-10T01:26:34;108.87;;;30.83;;
19358;SDS011;9815;52.334;20.890;2023-01-10T01:29:02;100.33;;;29.83;;
19358;SDS011;9815;52.334;20.890;2023-01-10T01:31:30;103.00;;;29.67;;
19358;SDS011;9815;52.334;20.890;2023-01-10T01:33:58;109.23;;;31.10;;
19358;SDS011;9815;52.334;20.890;2023-01-10T01:36:27;106.87;;;30.87;;
19358;SDS011;9815;52.334;20.890;2023-01-10T01:38:55;102.17;;;30.33;;
19358;SDS011;9815;52.334;20.890;2023-01-10T01:41:23;96.13;;;29.67;;
19358;SDS011;9815;52.334;20.890;2023-01-10T01:44:11;98.43;;;29.70;;
19358;SDS011;9815;52.334;20.890;2023-01-10T01:46:43;106.13;;;31.30;;
19358;SDS011;9815;52.334;20.890;2023-01-10T01:49:14;99.20;;;29.27;;
19358;SDS011;9815;52.334;20.890;2023-01-10T01:51:47;93.33;;;28.70;;
19358;SDS011;9815;52.334;20.890;2023-01-10T01:54:17;108.63;;;31.53;;
19358;SDS011;9815;52.334;20.890;2023-01-10T01:56:47;87.90;;;28.37;;
19358;SDS011;9815;52.334;20.890;2023-01-10T01:59:19;104.93;;;30.57;;
19358;SDS011;9815;52.334;20.890;2023-01-10T02:01:51;104.93;;;29.67;;
19358;SDS011;9815;52.334;20.890;2023-01-10T02:04:26;103.30;;;29.33;;
19358;SDS011;9815;52.334;20.890;2023-01-10T02:06:59;100.73;;;29.80;;
19358;SDS011;9815;52.334;20.890;2023-01-10T02:09:27;99.37;;;30.93;;
19358;SDS011;9815;52.334;20.890;2023-01-10T02:11:59;98.70;;;30.10;;
19358;SDS011;9815;52.334;20.890;2023-01-10T02:14:28;96.90;;;29.87;;
19358;SDS011;9815;52.334;20.890;2023-01-10T02:16:58;102.77;;;31.07;;
19358;SDS011;9815;52.334;20.890;2023-01-10T02:19:27;103.63;;;30.10;;
19358;SDS011;9815;52.334;20.890;2023-01-10T02:31:34;97.10;;;31.40;;
19358;SDS011;9815;52.334;20.890;2023-01-10T02:34:17;100.30;;;29.17;;
19358;SDS011;9815;52.334;20.890;2023-01-10T02:36:53;88.37;;;29.90;;
19358;SDS011;9815;52.334;20.890;2023-01-10T02:39:27;103.90;;;30.67;;
19358;SDS011;9815;52.334;20.890;2023-01-10T02:42:03;98.77;;;28.93;;
19358;SDS011;9815;52.334;20.890;2023-01-10T02:44:35;102.40;;;30.43;;
19358;SDS011;9815;52.334;20.890;2023-01-10T02:47:11;99.37;;;29.13;;
19358;SDS011;9815;52.334;20.890;2023-01-10T02:49:40;103.80;;;30.40;;
19358;SDS011;9815;52.334;20.890;2023-01-10T02:52:09;94.53;;;30.33;;
19358;SDS011;9815;52.334;20.890;2023-01-10T02:54:39;93.77;;;30.00;;
19358;SDS011;9815;52.334;20.890;2023-01-10T02:57:11;99.53;;;30.83;;
19358;SDS011;9815;52.334;20.890;2023-01-10T03:03:00;95.57;;;28.37;;
19358;SDS011;9815;52.334;20.890;2023-01-10T03:05:42;97.93;;;31.00;;
19358;SDS011;9815;52.334;20.890;2023-01-10T03:08:22;110.00;;;31.27;;
19358;SDS011;9815;52.334;20.890;2023-01-10T03:10:55;115.23;;;31.50;;
19358;SDS011;9815;52.334;20.890;2023-01-10T03:13:26;97.27;;;30.77;;
19358;SDS011;9815;52.334;20.890;2023-01-10T03:15:58;99.17;;;30.53;;
19358;SDS011;9815;52.334;20.890;2023-01-10T03:18:32;97.00;;;31.13;;
19358;SDS011;9815;52.334;20.890;2023-01-10T03:21:05;104.70;;;30.77;;
19358;SDS011;9815;52.334;20.890;2023-01-10T03:23:36;91.60;;;29.87;;
19358;SDS011;9815;52.334;20.890;2023-01-10T03:26:06;108.63;;;31.30;;
19358;SDS011;9815;52.334;20.890;2023-01-10T03:28:37;102.33;;;29.10;;
19358;SDS011;9815;52.334;20.890;2023-01-10T03:31:11;105.33;;;30.67;;
19358;SDS011;9815;52.334;20.890;2023-01-10T03:33:45;100.70;;;31.57;;
19358;SDS011;9815;52.334;20.890;2023-01-10T03:36:16;105.90;;;32.00;;
19358;SDS011;9815;52.334;20.890;2023-01-10T03:38:54;98.47;;;29.80;;
19358;SDS011;9815;52.334;20.890;2023-01-10T03:41:28;98.47;;;31.97;;
19358;SDS011;9815;52.334;20.890;2023-01-10T03:44:04;108.27;;;30.63;;
19358;SDS011;9815;52.334;20.890;2023-01-10T03:46:57;100.53;;;31.90;;
19358;SDS011;9815;52.334;20.890;2023-01-10T03:49:32;103.33;;;32.37;;
19358;SDS011;9815;52.334;20.890;2023-01-10T03:52:03;116.40;;;32.53;;
19358;SDS011;9815;52.334;20.890;2023-01-10T03:54:33;110.63;;;31.60;;
19358;SDS011;9815;52.334;20.890;2023-01-10T03:57:01;110.50;;;32.73;;
19358;SDS011;9815;52.334;20.890;2023-01-10T03:59:29;101.43;;;32.13;;
19358;SDS011;9815;52.334;20.890;2023-01-10T04:01:57;103.77;;;32.03;;
19358;SDS011;9815;52.334;20.890;2023-01-10T04:04:25;98.27;;;30.13;;
19358;SDS011;9815;52.334;20.890;2023-01-10T04:06:54;107.23;;;33.50;;
19358;SDS011;9815;52.334;20.890;2023-01-10T04:09:22;109.63;;;32.57;;
19358;SDS011;9815;52.334;20.890;2023-01-10T04:11:50;116.00;;;34.00;;
19358;SDS011;9815;52.334;20.890;2023-01-10T04:14:18;113.57;;;33.97;;
19358;SDS011;9815;52.334;20.890;2023-01-10T04:16:46;106.17;;;31.87;;
19358;SDS011;9815;52.334;20.890;2023-01-10T04:19:14;95.20;;;31.07;;
19358;SDS011;9815;52.334;20.890;2023-01-10T04:21:42;96.13;;;30.90;;
19358;SDS011;9815;52.334;20.890;2023-01-10T04:24:11;114.40;;;32.80;;
19358;SDS011;9815;52.334;20.890;2023-01-10T04:26:39;105.80;;;30.80;;
19358;SDS011;9815;52.334;20.890;2023-01-10T04:29:07;115.70;;;33.57;;
19358;SDS011;9815;52.334;20.890;2023-01-10T04:31:35;95.17;;;31.13;;
19358;SDS011;9815;52.334;20.890;2023-01-10T04:34:05;106.60;;;32.57;;
19358;SDS011;9815;52.334;20.890;2023-01-10T04:36:34;111.00;;;30.87;;
19358;SDS011;9815;52.334;20.890;2023-01-10T04:39:02;105.73;;;31.47;;
19358;SDS011;9815;52.334;20.890;2023-01-10T04:41:32;108.77;;;30.83;;
19358;SDS011;9815;52.334;20.890;2023-01-10T04:44:00;103.97;;;32.13;;
19358;SDS011;9815;52.334;20.890;2023-01-10T04:46:28;96.07;;;31.87;;
19358;SDS011;9815;52.334;20.890;2023-01-10T04:48:56;100.83;;;31.23;;
19358;SDS011;9815;52.334;20.890;2023-01-10T04:51:25;107.07;;;30.93;;
19358;SDS011;9815;52.334;20.890;2023-01-10T04:53:53;101.87;;;31.97;;
19358;SDS011;9815;52.334;20.890;2023-01-10T04:56:22;108.90;;;33.40;;
19358;SDS011;9815;52.334;20.890;2023-01-10T04:58:51;100.40;;;33.23;;
19358;SDS011;9815;52.334;20.890;2023-01-10T05:01:20;111.07;;;33.23;;
19358;SDS011;9815;52.334;20.890;2023-01-10T05:03:49;108.17;;;32.50;;
19358;SDS011;9815;52.334;20.890;2023-01-10T05:06:19;97.33;;;31.10;;
19358;SDS011;9815;52.334;20.890;2023-01-10T05:08:47;95.50;;;30.07;;
19358;SDS011;9815;52.334;20.890;2023-01-10T05:11:15;103.80;;;30.53;;
19358;SDS011;9815;52.334;20.890;2023-01-10T05:13:43;89.07;;;28.90;;
19358;SDS011;9815;52.334;20.890;2023-01-10T05:16:14;86.23;;;29.90;;
19358;SDS011;9815;52.334;20.890;2023-01-10T05:18:43;95.63;;;30.57;;
19358;SDS011;9815;52.334;20.890;2023-01-10T05:21:12;96.53;;;29.13;;
19358;SDS011;9815;52.334;20.890;2023-01-10T05:23:40;98.60;;;29.93;;
19358;SDS011;9815;52.334;20.890;2023-01-10T05:26:09;103.50;;;30.83;;
19358;SDS011;9815;52.334;20.890;2023-01-10T05:28:38;92.43;;;31.47;;
19358;SDS011;9815;52.334;20.890;2023-01-10T05:31:07;92.63;;;29.43;;
19358;SDS011;9815;52.334;20.890;2023-01-10T05:33:37;92.77;;;29.40;;
19358;SDS011;9815;52.334;20.890;2023-01-10T05:36:05;92.00;;;29.57;;
19358;SDS011;9815;52.334;20.890;2023-01-10T05:38:34;97.03;;;29.40;;
19358;SDS011;9815;52.334;20.890;2023-01-10T05:41:02;93.37;;;30.67;;
19358;SDS011;9815;52.334;20.890;2023-01-10T05:43:30;90.00;;;30.57;;
19358;SDS011;9815;52.334;20.890;2023-01-10T05:45:58;96.80;;;31.73;;
19358;SDS011;9815;52.334;20.890;2023-01-10T05:48:26;99.57;;;31.03;;
19358;SDS011;9815;52.334;20.890;2023-01-10T05:50:55;96.67;;;31.13;;
19358;SDS011;9815;52.334;20.890;2023-01-10T05:53:23;97.77;;;32.60;;
19358;SDS011;9815;52.334;20.890;2023-01-10T05:55:52;93.83;;;31.73;;
19358;SDS011;9815;52.334;20.890;2023-01-10T05:58:21;89.10;;;31.80;;
19358;SDS011;9815;52.334;20.890;2023-01-10T06:00:50;97.13;;;32.17;;
19358;SDS011;9815;52.334;20.890;2023-01-10T06:03:18;101.30;;;34.43;;
19358;SDS011;9815;52.334;20.890;2023-01-10T06:05:46;99.27;;;33.70;;
19358;SDS011;9815;52.334;20.890;2023-01-10T06:08:16;103.00;;;32.13;;
19358;SDS011;9815;52.334;20.890;2023-01-10T06:10:43;97.60;;;31.73;;
19358;SDS011;9815;52.334;20.890;2023-01-10T06:13:11;105.63;;;32.97;;
19358;SDS011;9815;52.334;20.890;2023-01-10T06:15:39;101.43;;;32.67;;
19358;SDS011;9815;52.334;20.890;2023-01-10T06:18:08;94.13;;;31.97;;
19358;SDS011;9815;52.334;20.890;2023-01-10T06:20:38;92.93;;;31.67;;
19358;SDS011;9815;52.334;20.890;2023-01-10T06:23:06;98.90;;;32.67;;
19358;SDS011;9815;52.334;20.890;2023-01-10T06:25:36;94.43;;;32.20;;
19358;SDS011;9815;52.334;20.890;2023-01-10T06:28:06;97.90;;;32.70;;
19358;SDS011;9815;52.334;20.890;2023-01-10T06:30:34;95.27;;;32.57;;
19358;SDS011;9815;52.334;20.890;2023-01-10T06:33:03;98.83;;;30.77;;
19358;SDS011;9815;52.334;20.890;2023-01-10T06:35:33;99.43;;;32.23;;
19358;SDS011;9815;52.334;20.890;2023-01-10T06:38:02;99.87;;;31.77;;
19358;SDS011;9815;52.334;20.890;2023-01-10T06:40:30;87.87;;;30.13;;
19358;SDS011;9815;52.334;20.890;2023-01-10T06:42:59;91.13;;;31.73;;
19358;SDS011;9815;52.334;20.890;2023-01-10T06:45:27;89.03;;;32.40;;
19358;SDS011;9815;52.334;20.890;2023-01-10T06:47:55;96.53;;;30.00;;
19358;SDS011;9815;52.334;20.890;2023-01-10T06:50:23;91.20;;;30.93;;
19358;SDS011;9815;52.334;20.890;2023-01-10T06:52:55;87.90;;;31.23;;
19358;SDS011;9815;52.334;20.890;2023-01-10T06:55:23;90.67;;;32.33;;
19358;SDS011;9815;52.334;20.890;2023-01-10T06:57:55;90.43;;;31.97;;
19358;SDS011;9815;52.334;20.890;2023-01-10T07:00:25;103.27;;;32.27;;
19358;SDS011;9815;52.334;20.890;2023-01-10T07:02:55;86.83;;;31.90;;
19358;SDS011;9815;52.334;20.890;2023-01-10T07:05:25;97.93;;;32.77;;
19358;SDS011;9815;52.334;20.890;2023-01-10T07:07:53;102.60;;;31.97;;
19358;SDS011;9815;52.334;20.890;2023-01-10T07:10:47;102.50;;;33.87;;
19358;SDS011;9815;52.334;20.890;2023-01-10T07:13:28;83.33;;;29.87;;
19358;SDS011;9815;52.334;20.890;2023-01-10T07:16:01;99.40;;;32.73;;
19358;SDS011;9815;52.334;20.890;2023-01-10T07:18:30;89.70;;;31.27;;
19358;SDS011;9815;52.334;20.890;2023-01-10T07:20:59;85.40;;;30.70;;
19358;SDS011;9815;52.334;20.890;2023-01-10T07:23:27;78.57;;;29.67;;
19358;SDS011;9815;52.334;20.890;2023-01-10T07:25:56;85.73;;;30.97;;
19358;SDS011;9815;52.334;20.890;2023-01-10T07:28:24;84.73;;;28.70;;
19358;SDS011;9815;52.334;20.890;2023-01-10T07:30:52;89.93;;;30.60;;
19358;SDS011;9815;52.334;20.890;2023-01-10T07:33:21;74.93;;;28.20;;
19358;SDS011;9815;52.334;20.890;2023-01-10T07:35:49;79.80;;;28.60;;
19358;SDS011;9815;52.334;20.890;2023-01-10T07:38:17;80.57;;;28.57;;
19358;SDS011;9815;52.334;20.890;2023-01-10T07:40:45;72.23;;;27.37;;
19358;SDS011;9815;52.334;20.890;2023-01-10T07:43:13;76.87;;;26.93;;
19358;SDS011;9815;52.334;20.890;2023-01-10T07:45:41;77.63;;;26.83;;
19358;SDS011;9815;52.334;20.890;2023-01-10T07:48:10;74.97;;;27.00;;
19358;SDS011;9815;52.334;20.890;2023-01-10T07:50:39;68.17;;;25.07;;
19358;SDS011;9815;52.334;20.890;2023-01-10T07:53:07;68.27;;;26.37;;
19358;SDS011;9815;52.334;20.890;2023-01-10T07:55:36;63.87;;;25.40;;
19358;SDS011;9815;52.334;20.890;2023-01-10T07:58:05;69.30;;;25.30;;
19358;SDS011;9815;52.334;20.890;2023-01-10T08:00:34;82.50;;;27.00;;
19358;SDS011;9815;52.334;20.890;2023-01-10T08:03:02;66.37;;;25.17;;
19358;SDS011;9815;52.334;20.890;2023-01-10T08:05:31;70.13;;;25.50;;
19358;SDS011;9815;52.334;20.890;2023-01-10T08:08:03;75.93;;;27.33;;
19358;SDS011;9815;52.334;20.890;2023-01-10T08:10:32;73.03;;;27.63;;
19358;SDS011;9815;52.334;20.890;2023-01-10T08:13:01;67.40;;;26.10;;
19358;SDS011;9815;52.334;20.890;2023-01-10T08:15:43;71.47;;;25.90;;
19358;SDS011;9815;52.334;20.890;2023-01-10T08:18:12;70.17;;;26.33;;
19358;SDS011;9815;52.334;20.890;2023-01-10T08:20:40;66.90;;;24.50;;
19358;SDS011;9815;52.334;20.890;2023-01-10T08:23:09;64.60;;;25.23;;
19358;SDS011;9815;52.334;20.890;2023-01-10T08:25:37;63.70;;;24.77;;
19358;SDS011;9815;52.334;20.890;2023-01-10T08:28:05;62.77;;;24.27;;
19358;SDS011;9815;52.334;20.890;2023-01-10T08:30:33;64.67;;;24.17;;
19358;SDS011;9815;52.334;20.890;2023-01-10T08:33:01;68.83;;;24.67;;
19358;SDS011;9815;52.334;20.890;2023-01-10T08:35:30;64.97;;;24.03;;
19358;SDS011;9815;52.334;20.890;2023-01-10T08:38:03;62.40;;;23.33;;
19358;SDS011;9815;52.334;20.890;2023-01-10T08:40:33;65.00;;;23.43;;
19358;SDS011;9815;52.334;20.890;2023-01-10T08:43:01;53.77;;;22.07;;
19358;SDS011;9815;52.334;20.890;2023-01-10T08:45:31;65.67;;;23.47;;
19358;SDS011;9815;52.334;20.890;2023-01-10T08:47:59;58.27;;;22.83;;
19358;SDS011;9815;52.334;20.890;2023-01-10T08:50:28;60.87;;;22.67;;
19358;SDS011;9815;52.334;20.890;2023-01-10T08:52:56;49.47;;;21.30;;
19358;SDS011;9815;52.334;20.890;2023-01-10T08:55:25;55.73;;;21.87;;
19358;SDS011;9815;52.334;20.890;2023-01-10T08:57:54;54.63;;;22.43;;
19358;SDS011;9815;52.334;20.890;2023-01-10T09:00:25;51.63;;;21.70;;
19358;SDS011;9815;52.334;20.890;2023-01-10T09:02:53;52.67;;;21.33;;
19358;SDS011;9815;52.334;20.890;2023-01-10T09:05:21;53.27;;;21.17;;
19358;SDS011;9815;52.334;20.890;2023-01-10T09:07:57;60.03;;;23.73;;
19358;SDS011;9815;52.334;20.890;2023-01-10T09:10:26;55.47;;;21.43;;
19358;SDS011;9815;52.334;20.890;2023-01-10T09:12:55;57.50;;;22.47;;
19358;SDS011;9815;52.334;20.890;2023-01-10T09:15:27;54.07;;;21.60;;
19358;SDS011;9815;52.334;20.890;2023-01-10T09:17:58;57.57;;;21.30;;
19358;SDS011;9815;52.334;20.890;2023-01-10T09:20:27;62.47;;;22.23;;
19358;SDS011;9815;52.334;20.890;2023-01-10T09:22:56;64.13;;;21.37;;
19358;SDS011;9815;52.334;20.890;2023-01-10T09:25:24;58.43;;;22.03;;
19358;SDS011;9815;52.334;20.890;2023-01-10T09:27:57;54.90;;;21.03;;
19358;SDS011;9815;52.334;20.890;2023-01-10T09:30:26;56.97;;;21.80;;
19358;SDS011;9815;52.334;20.890;2023-01-10T09:32:55;59.47;;;21.40;;
19358;SDS011;9815;52.334;20.890;2023-01-10T09:35:25;53.63;;;20.47;;
19358;SDS011;9815;52.334;20.890;2023-01-10T09:37:54;51.03;;;20.50;;
19358;SDS011;9815;52.334;20.890;2023-01-10T09:40:26;55.17;;;21.93;;
19358;SDS011;9815;52.334;20.890;2023-01-10T09:43:03;48.57;;;21.07;;
19358;SDS011;9815;52.334;20.890;2023-01-10T09:45:41;56.67;;;21.63;;
19358;SDS011;9815;52.334;20.890;2023-01-10T09:48:16;51.37;;;20.70;;
19358;SDS011;9815;52.334;20.890;2023-01-10T09:50:54;50.13;;;21.03;;
19358;SDS011;9815;52.334;20.890;2023-01-10T09:53:31;50.80;;;19.63;;
19358;SDS011;9815;52.334;20.890;2023-01-10T09:56:00;48.40;;;20.23;;
19358;SDS011;9815;52.334;20.890;2023-01-10T09:58:31;53.67;;;20.10;;
19358;SDS011;9815;52.334;20.890;2023-01-10T10:01:03;52.67;;;19.27;;
19358;SDS011;9815;52.334;20.890;2023-01-10T10:03:37;45.03;;;19.87;;
19358;SDS011;9815;52.334;20.890;2023-01-10T10:06:11;68.00;;;20.77;;
19358;SDS011;9815;52.334;20.890;2023-01-10T10:08:40;55.97;;;20.03;;
19358;SDS011;9815;52.334;20.890;2023-01-10T10:11:19;58.60;;;20.23;;
19358;SDS011;9815;52.334;20.890;2023-01-10T10:14:02;57.40;;;19.47;;
19358;SDS011;9815;52.334;20.890;2023-01-10T10:16:40;46.90;;;19.73;;
19358;SDS011;9815;52.334;20.890;2023-01-10T10:19:21;54.80;;;20.40;;
19358;SDS011;9815;52.334;20.890;2023-01-10T10:21:56;55.87;;;19.40;;
19358;SDS011;9815;52.334;20.890;2023-01-10T10:24:35;64.43;;;20.20;;
19358;SDS011;9815;52.334;20.890;2023-01-10T10:27:15;52.83;;;19.20;;
19358;SDS011;9815;52.334;20.890;2023-01-10T10:29:58;66.77;;;19.63;;
19358;SDS011;9815;52.334;20.890;2023-01-10T10:32:50;56.10;;;19.83;;
19358;SDS011;9815;52.334;20.890;2023-01-10T10:35:28;50.37;;;19.40;;
19358;SDS011;9815;52.334;20.890;2023-01-10T10:38:00;49.97;;;19.37;;
19358;SDS011;9815;52.334;20.890;2023-01-10T10:40:35;48.60;;;19.80;;
19358;SDS011;9815;52.334;20.890;2023-01-10T10:43:10;50.53;;;19.10;;
19358;SDS011;9815;52.334;20.890;2023-01-10T10:45:46;43.03;;;18.30;;
19358;SDS011;9815;52.334;20.890;2023-01-10T10:48:20;48.73;;;19.33;;
19358;SDS011;9815;52.334;20.890;2023-01-10T10:50:54;45.20;;;18.53;;
19358;SDS011;9815;52.334;20.890;2023-01-10T10:53:30;49.47;;;19.77;;
19358;SDS011;9815;52.334;20.890;2023-01-10T10:55:59;46.70;;;18.63;;
19358;SDS011;9815;52.334;20.890;2023-01-10T10:58:29;49.40;;;19.80;;
19358;SDS011;9815;52.334;20.890;2023-01-10T11:00:58;43.80;;;18.33;;
19358;SDS011;9815;52.334;20.890;2023-01-10T11:03:33;43.63;;;18.93;;
19358;SDS011;9815;52.334;20.890;2023-01-10T11:06:06;46.77;;;20.17;;
19358;SDS011;9815;52.334;20.890;2023-01-10T11:08:35;43.40;;;18.57;;
19358;SDS011;9815;52.334;20.890;2023-01-10T11:11:08;44.23;;;18.50;;
19358;SDS011;9815;52.334;20.890;2023-01-10T11:13:45;42.67;;;18.67;;
19358;SDS011;9815;52.334;20.890;2023-01-10T11:16:27;45.20;;;19.17;;
19358;SDS011;9815;52.334;20.890;2023-01-10T11:19:17;46.07;;;18.37;;
19358;SDS011;9815;52.334;20.890;2023-01-10T11:21:48;43.00;;;18.60;;
19358;SDS011;9815;52.334;20.890;2023-01-10T11:24:20;44.80;;;18.67;;
19358;SDS011;9815;52.334;20.890;2023-01-10T11:26:52;45.70;;;18.90;;
19358;SDS011;9815;52.334;20.890;2023-01-10T11:29:23;52.53;;;20.27;;
19358;SDS011;9815;52.334;20.890;2023-01-10T11:31:55;46.37;;;19.40;;
19358;SDS011;9815;52.334;20.890;2023-01-10T11:34:24;48.90;;;19.63;;
19358;SDS011;9815;52.334;20.890;2023-01-10T11:36:56;49.87;;;20.63;;
19358;SDS011;9815;52.334;20.890;2023-01-10T11:39:26;47.93;;;20.77;;
19358;SDS011;9815;52.334;20.890;2023-01-10T11:41:56;44.33;;;19.40;;
19358;SDS011;9815;52.334;20.890;2023-01-10T11:44:44;50.23;;;21.50;;
19358;SDS011;9815;52.334;20.890;2023-01-10T11:47:13;49.40;;;21.17;;
19358;SDS011;9815;52.334;20.890;2023-01-10T11:49:45;53.13;;;21.80;;
19358;SDS011;9815;52.334;20.890;2023-01-10T11:52:16;48.67;;;21.43;;
19358;SDS011;9815;52.334;20.890;2023-01-10T11:54:47;60.60;;;21.97;;
19358;SDS011;9815;52.334;20.890;2023-01-10T11:57:16;56.47;;;21.83;;
19358;SDS011;9815;52.334;20.890;2023-01-10T11:59:50;67.70;;;20.53;;
19358;SDS011;9815;52.334;20.890;2023-01-10T12:02:21;60.43;;;21.60;;
19358;SDS011;9815;52.334;20.890;2023-01-10T12:04:51;74.23;;;22.53;;
19358;SDS011;9815;52.334;20.890;2023-01-10T12:07:21;55.90;;;22.27;;
19358;SDS011;9815;52.334;20.890;2023-01-10T12:09:53;53.60;;;22.60;;
19358;SDS011;9815;52.334;20.890;2023-01-10T12:12:23;60.43;;;21.73;;
19358;SDS011;9815;52.334;20.890;2023-01-10T12:14:52;49.20;;;21.17;;
19358;SDS011;9815;52.334;20.890;2023-01-10T12:17:23;50.53;;;20.70;;
19358;SDS011;9815;52.334;20.890;2023-01-10T12:19:53;48.47;;;20.93;;
19358;SDS011;9815;52.334;20.890;2023-01-10T12:22:26;53.63;;;21.33;;
19358;SDS011;9815;52.334;20.890;2023-01-10T12:24:57;49.23;;;21.90;;
19358;SDS011;9815;52.334;20.890;2023-01-10T12:27:27;57.03;;;21.33;;
19358;SDS011;9815;52.334;20.890;2023-01-10T12:29:59;54.30;;;21.73;;
19358;SDS011;9815;52.334;20.890;2023-01-10T12:32:35;69.43;;;22.60;;
19358;SDS011;9815;52.334;20.890;2023-01-10T12:35:09;66.47;;;23.77;;
19358;SDS011;9815;52.334;20.890;2023-01-10T12:37:44;52.30;;;21.77;;
19358;SDS011;9815;52.334;20.890;2023-01-10T12:40:18;46.20;;;20.67;;
19358;SDS011;9815;52.334;20.890;2023-01-10T12:42:53;48.83;;;20.87;;
19358;SDS011;9815;52.334;20.890;2023-01-10T12:45:42;53.67;;;21.70;;
19358;SDS011;9815;52.334;20.890;2023-01-10T12:48:19;50.70;;;21.80;;
19358;SDS011;9815;52.334;20.890;2023-01-10T12:50:51;48.77;;;20.93;;
19358;SDS011;9815;52.334;20.890;2023-01-10T12:53:27;58.67;;;21.73;;
19358;SDS011;9815;52.334;20.890;2023-01-10T12:55:59;56.47;;;21.93;;
19358;SDS011;9815;52.334;20.890;2023-01-10T12:58:34;43.20;;;19.87;;
19358;SDS011;9815;52.334;20.890;2023-01-10T13:01:08;49.57;;;21.07;;
19358;SDS011;9815;52.334;20.890;2023-01-10T13:03:41;48.47;;;20.17;;
19358;SDS011;9815;52.334;20.890;2023-01-10T13:06:11;48.13;;;20.33;;
19358;SDS011;9815;52.334;20.890;2023-01-10T13:08:47;47.77;;;19.53;;
19358;SDS011;9815;52.334;20.890;2023-01-10T13:11:16;45.37;;;20.27;;
19358;SDS011;9815;52.334;20.890;2023-01-10T13:13:51;41.83;;;18.77;;
19358;SDS011;9815;52.334;20.890;2023-01-10T13:16:25;46.17;;;18.73;;
19358;SDS011;9815;52.334;20.890;2023-01-10T13:19:02;46.50;;;19.07;;
19358;SDS011;9815;52.334;20.890;2023-01-10T13:21:32;58.40;;;20.60;;
19358;SDS011;9815;52.334;20.890;2023-01-10T13:24:01;73.23;;;21.23;;
19358;SDS011;9815;52.334;20.890;2023-01-10T13:26:47;55.47;;;19.30;;
19358;SDS011;9815;52.334;20.890;2023-01-10T13:29:18;56.37;;;20.00;;
19358;SDS011;9815;52.334;20.890;2023-01-10T13:31:48;55.97;;;21.17;;
19358;SDS011;9815;52.334;20.890;2023-01-10T13:34:24;46.10;;;18.97;;
19358;SDS011;9815;52.334;20.890;2023-01-10T13:36:54;43.70;;;18.33;;
19358;SDS011;9815;52.334;20.890;2023-01-10T13:39:26;43.10;;;18.03;;
19358;SDS011;9815;52.334;20.890;2023-01-10T13:42:11;43.73;;;19.13;;
19358;SDS011;9815;52.334;20.890;2023-01-10T13:45:17;41.03;;;17.93;;
19358;SDS011;9815;52.334;20.890;2023-01-10T13:48:00;47.10;;;18.27;;
19358;SDS011;9815;52.334;20.890;2023-01-10T13:50:49;42.10;;;18.37;;
19358;SDS011;9815;52.334;20.890;2023-01-10T13:53:39;44.23;;;18.87;;
19358;SDS011;9815;52.334;20.890;2023-01-10T13:59:58;42.10;;;18.80;;
19358;SDS011;9815;52.334;20.890;2023-01-10T14:02:35;35.23;;;16.67;;
19358;SDS011;9815;52.334;20.890;2023-01-10T14:05:14;40.03;;;17.20;;
19358;SDS011;9815;52.334;20.890;2023-01-10T14:07:46;36.37;;;15.87;;
19358;SDS011;9815;52.334;20.890;2023-01-10T14:10:20;32.30;;;15.53;;
19358;SDS011;9815;52.334;20.890;2023-01-10T14:12:50;35.87;;;15.63;;
19358;SDS011;9815;52.334;20.890;2023-01-10T14:15:24;34.63;;;15.27;;
19358;SDS011;9815;52.334;20.890;2023-01-10T14:17:56;35.33;;;14.43;;
19358;SDS011;9815;52.334;20.890;2023-01-10T14:20:25;33.87;;;15.17;;
19358;SDS011;9815;52.334;20.890;2023-01-10T14:23:01;34.30;;;15.40;;
19358;SDS011;9815;52.334;20.890;2023-01-10T14:25:32;33.80;;;15.63;;
19358;SDS011;9815;52.334;20.890;2023-01-10T14:28:02;39.40;;;16.00;;
19358;SDS011;9815;52.334;20.890;2023-01-10T14:30:33;32.57;;;15.93;;
19358;SDS011;9815;52.334;20.890;2023-01-10T14:33:04;34.60;;;16.93;;
19358;SDS011;9815;52.334;20.890;2023-01-10T14:35:41;42.80;;;16.43;;
19358;SDS011;9815;52.334;20.890;2023-01-10T14:38:15;38.37;;;15.63;;
19358;SDS011;9815;52.334;20.890;2023-01-10T14:40:46;38.93;;;16.67;;
19358;SDS011;9815;52.334;20.890;2023-01-10T14:43:18;59.93;;;18.13;;
19358;SDS011;9815;52.334;20.890;2023-01-10T14:45:51;73.60;;;18.93;;
19358;SDS011;9815;52.334;20.890;2023-01-10T14:48:28;48.33;;;17.77;;
19358;SDS011;9815;52.334;20.890;2023-01-10T14:51:16;61.63;;;17.43;;
19358;SDS011;9815;52.334;20.890;2023-01-10T14:53:54;41.33;;;17.20;;
19358;SDS011;9815;52.334;20.890;2023-01-10T14:56:24;43.30;;;20.27;;
19358;SDS011;9815;52.334;20.890;2023-01-10T14:58:53;48.63;;;19.17;;
19358;SDS011;9815;52.334;20.890;2023-01-10T15:01:23;45.60;;;19.73;;